sensor_id;sensor_type;location;lat;lon;timestamp;P1;durP1;ratioP1;P2;durP2;ratioP2
11568;SDS011;5840;46.894;15.542;2023-03-14T00:02:30;6.23;;;5.17;;
11568;SDS011;5840;46.894;15.542;2023-03-14T00:04:57;6.83;;;4.90;;
11568;SDS011;5840;46.894;15.542;2023-03-14T00:07:24;6.67;;;4.93;;
11568;SDS011;5840;46.894;15.542;2023-03-14T00:09:51;5.83;;;5.27;;
11568;SDS011;5840;46.894;15.542;2023-03-14T00:12:18;5.97;;;5.37;;
11568;SDS011;5840;46.894;15.542;2023-03-14T00:14:45;7.03;;;5.40;;
11568;SDS011;5840;46.894;15.542;2023-03-14T00:17:13;6.17;;;4.93;;
11568;SDS011;5840;46.894;15.542;2023-03-14T00:19:40;5.93;;;5.43;;
11568;SDS011;5840;46.894;15.542;2023-03-14T00:22:07;5.57;;;5.00;;
11568;SDS011;5840;46.894;15.542;2023-03-14T00:24:34;5.77;;;5.17;;
11568;SDS011;5840;46.894;15.542;2023-03-14T00:27:01;4.67;;;4.20;;
11568;SDS011;5840;46.894;15.542;2023-03-14T00:29:28;5.00;;;4.50;;
11568;SDS011;5840;46.894;15.542;2023-03-14T00:31:55;4.53;;;4.17;;
11568;SDS011;5840;46.894;15.542;2023-03-14T00:34:26;7.00;;;5.63;;
11568;SDS011;5840;46.894;15.542;2023-03-14T00:36:55;5.20;;;4.67;;
11568;SDS011;5840;46.894;15.542;2023-03-14T00:39:21;5.30;;;4.30;;
11568;SDS011;5840;46.894;15.542;2023-03-14T00:41:48;4.37;;;3.97;;
11568;SDS011;5840;46.894;15.542;2023-03-14T00:44:15;5.17;;;4.77;;
11568;SDS011;5840;46.894;15.542;2023-03-14T00:46:42;5.07;;;4.33;;
11568;SDS011;5840;46.894;15.542;2023-03-14T00:49:09;4.20;;;3.67;;
11568;SDS011;5840;46.894;15.542;2023-03-14T00:51:38;4.00;;;3.57;;
11568;SDS011;5840;46.894;15.542;2023-03-14T00:54:04;5.40;;;4.07;;
11568;SDS011;5840;46.894;15.542;2023-03-14T00:56:31;3.77;;;3.47;;
11568;SDS011;5840;46.894;15.542;2023-03-14T00:58:58;3.40;;;3.10;;
11568;SDS011;5840;46.894;15.542;2023-03-14T01:01:25;3.87;;;3.27;;
11568;SDS011;5840;46.894;15.542;2023-03-14T01:03:52;2.93;;;2.63;;
11568;SDS011;5840;46.894;15.542;2023-03-14T01:06:21;3.27;;;2.87;;
11568;SDS011;5840;46.894;15.542;2023-03-14T01:08:51;2.77;;;2.57;;
11568;SDS011;5840;46.894;15.542;2023-03-14T01:11:20;3.70;;;2.90;;
11568;SDS011;5840;46.894;15.542;2023-03-14T01:13:49;2.53;;;2.30;;
11568;SDS011;5840;46.894;15.542;2023-03-14T01:16:16;2.70;;;2.30;;
11568;SDS011;5840;46.894;15.542;2023-03-14T01:18:44;2.43;;;2.23;;
11568;SDS011;5840;46.894;15.542;2023-03-14T01:21:13;3.40;;;2.40;;
11568;SDS011;5840;46.894;15.542;2023-03-14T01:23:41;2.73;;;2.53;;
11568;SDS011;5840;46.894;15.542;2023-03-14T01:26:10;3.33;;;2.67;;
11568;SDS011;5840;46.894;15.542;2023-03-14T01:28:38;3.23;;;2.40;;
11568;SDS011;5840;46.894;15.542;2023-03-14T01:31:06;2.30;;;2.10;;
11568;SDS011;5840;46.894;15.542;2023-03-14T01:33:34;2.50;;;2.30;;
11568;SDS011;5840;46.894;15.542;2023-03-14T01:36:02;2.43;;;1.97;;
11568;SDS011;5840;46.894;15.542;2023-03-14T01:38:29;2.77;;;2.33;;
11568;SDS011;5840;46.894;15.542;2023-03-14T01:40:57;2.40;;;2.20;;
11568;SDS011;5840;46.894;15.542;2023-03-14T01:43:25;2.57;;;2.37;;
11568;SDS011;5840;46.894;15.542;2023-03-14T01:48:57;5.63;;;2.60;;
11568;SDS011;5840;46.894;15.542;2023-03-14T01:51:34;6.90;;;2.70;;
11568;SDS011;5840;46.894;15.542;2023-03-14T01:54:08;2.77;;;2.10;;
11568;SDS011;5840;46.894;15.542;2023-03-14T01:56:40;2.33;;;2.13;;
11568;SDS011;5840;46.894;15.542;2023-03-14T01:59:11;3.70;;;2.50;;
11568;SDS011;5840;46.894;15.542;2023-03-14T02:01:38;6.07;;;2.70;;
11568;SDS011;5840;46.894;15.542;2023-03-14T02:04:09;2.43;;;2.27;;
11568;SDS011;5840;46.894;15.542;2023-03-14T02:06:42;3.20;;;2.17;;
11568;SDS011;5840;46.894;15.542;2023-03-14T02:09:13;2.53;;;2.10;;
11568;SDS011;5840;46.894;15.542;2023-03-14T02:11:41;3.83;;;2.30;;
11568;SDS011;5840;46.894;15.542;2023-03-14T02:14:08;2.57;;;2.07;;
11568;SDS011;5840;46.894;15.542;2023-03-14T02:16:43;2.43;;;2.20;;
11568;SDS011;5840;46.894;15.542;2023-03-14T02:19:10;2.30;;;2.10;;
11568;SDS011;5840;46.894;15.542;2023-03-14T02:21:42;3.90;;;1.90;;
11568;SDS011;5840;46.894;15.542;2023-03-14T02:24:17;2.13;;;1.93;;
11568;SDS011;5840;46.894;15.542;2023-03-14T02:29:34;2.23;;;2.00;;
11568;SDS011;5840;46.894;15.542;2023-03-14T02:32:06;3.00;;;2.03;;
11568;SDS011;5840;46.894;15.542;2023-03-14T02:34:33;2.03;;;1.93;;
11568;SDS011;5840;46.894;15.542;2023-03-14T02:37:02;1.97;;;1.87;;
11568;SDS011;5840;46.894;15.542;2023-03-14T02:39:33;2.40;;;2.03;;
11568;SDS011;5840;46.894;15.542;2023-03-14T02:42:03;2.80;;;2.43;;
11568;SDS011;5840;46.894;15.542;2023-03-14T02:44:31;2.33;;;2.13;;
11568;SDS011;5840;46.894;15.542;2023-03-14T02:47:00;3.43;;;2.23;;
11568;SDS011;5840;46.894;15.542;2023-03-14T02:49:27;2.03;;;1.80;;
11568;SDS011;5840;46.894;15.542;2023-03-14T02:51:58;2.13;;;1.97;;
11568;SDS011;5840;46.894;15.542;2023-03-14T02:54:25;2.53;;;2.00;;
11568;SDS011;5840;46.894;15.542;2023-03-14T02:56:52;2.37;;;2.03;;
11568;SDS011;5840;46.894;15.542;2023-03-14T02:59:18;2.43;;;2.23;;
11568;SDS011;5840;46.894;15.542;2023-03-14T03:01:47;2.47;;;2.27;;
11568;SDS011;5840;46.894;15.542;2023-03-14T03:04:14;3.00;;;2.67;;
11568;SDS011;5840;46.894;15.542;2023-03-14T03:06:41;2.50;;;2.30;;
11568;SDS011;5840;46.894;15.542;2023-03-14T03:09:08;2.33;;;2.23;;
11568;SDS011;5840;46.894;15.542;2023-03-14T03:11:35;4.60;;;2.60;;
11568;SDS011;5840;46.894;15.542;2023-03-14T03:14:02;2.57;;;2.30;;
11568;SDS011;5840;46.894;15.542;2023-03-14T03:16:29;2.63;;;2.43;;
11568;SDS011;5840;46.894;15.542;2023-03-14T03:18:57;3.77;;;2.23;;
11568;SDS011;5840;46.894;15.542;2023-03-14T03:21:24;2.70;;;2.50;;
11568;SDS011;5840;46.894;15.542;2023-03-14T03:23:51;3.83;;;2.67;;
11568;SDS011;5840;46.894;15.542;2023-03-14T03:26:18;3.60;;;2.10;;
11568;SDS011;5840;46.894;15.542;2023-03-14T03:28:45;2.40;;;2.23;;
11568;SDS011;5840;46.894;15.542;2023-03-14T03:31:12;2.53;;;2.33;;
11568;SDS011;5840;46.894;15.542;2023-03-14T03:33:39;3.03;;;2.57;;
11568;SDS011;5840;46.894;15.542;2023-03-14T03:36:08;2.50;;;2.30;;
11568;SDS011;5840;46.894;15.542;2023-03-14T03:38:36;2.37;;;2.20;;
11568;SDS011;5840;46.894;15.542;2023-03-14T03:41:03;2.80;;;2.40;;
11568;SDS011;5840;46.894;15.542;2023-03-14T03:43:31;2.60;;;2.40;;
11568;SDS011;5840;46.894;15.542;2023-03-14T03:45:59;2.50;;;2.30;;
11568;SDS011;5840;46.894;15.542;2023-03-14T03:48:29;2.77;;;2.57;;
11568;SDS011;5840;46.894;15.542;2023-03-14T03:50:56;2.57;;;2.37;;
11568;SDS011;5840;46.894;15.542;2023-03-14T03:53:24;2.90;;;2.40;;
11568;SDS011;5840;46.894;15.542;2023-03-14T03:55:51;2.37;;;2.17;;
11568;SDS011;5840;46.894;15.542;2023-03-14T03:58:18;2.77;;;2.57;;
11568;SDS011;5840;46.894;15.542;2023-03-14T04:00:46;2.73;;;2.07;;
11568;SDS011;5840;46.894;15.542;2023-03-14T04:03:12;3.50;;;2.40;;
11568;SDS011;5840;46.894;15.542;2023-03-14T04:05:39;3.00;;;2.70;;
11568;SDS011;5840;46.894;15.542;2023-03-14T04:08:06;2.60;;;2.40;;
11568;SDS011;5840;46.894;15.542;2023-03-14T04:10:35;2.60;;;2.40;;
11568;SDS011;5840;46.894;15.542;2023-03-14T04:13:02;2.50;;;2.30;;
11568;SDS011;5840;46.894;15.542;2023-03-14T04:15:29;2.53;;;2.33;;
11568;SDS011;5840;46.894;15.542;2023-03-14T04:17:56;2.83;;;2.63;;
11568;SDS011;5840;46.894;15.542;2023-03-14T04:20:24;18.03;;;10.10;;
11568;SDS011;5840;46.894;15.542;2023-03-14T04:22:51;4.13;;;3.73;;
11568;SDS011;5840;46.894;15.542;2023-03-14T04:25:18;3.30;;;3.10;;
11568;SDS011;5840;46.894;15.542;2023-03-14T04:27:46;3.00;;;2.80;;
11568;SDS011;5840;46.894;15.542;2023-03-14T04:30:13;4.20;;;3.20;;
11568;SDS011;5840;46.894;15.542;2023-03-14T04:32:40;3.00;;;2.80;;
11568;SDS011;5840;46.894;15.542;2023-03-14T04:35:08;4.37;;;3.63;;
11568;SDS011;5840;46.894;15.542;2023-03-14T04:37:35;3.10;;;2.90;;
11568;SDS011;5840;46.894;15.542;2023-03-14T04:40:02;3.57;;;3.20;;
11568;SDS011;5840;46.894;15.542;2023-03-14T04:42:31;3.23;;;2.93;;
11568;SDS011;5840;46.894;15.542;2023-03-14T04:45:00;5.00;;;3.20;;
11568;SDS011;5840;46.894;15.542;2023-03-14T04:47:27;4.63;;;3.00;;
11568;SDS011;5840;46.894;15.542;2023-03-14T04:49:54;3.33;;;3.00;;
11568;SDS011;5840;46.894;15.542;2023-03-14T04:52:21;3.80;;;3.33;;
11568;SDS011;5840;46.894;15.542;2023-03-14T04:54:48;4.27;;;3.53;;
11568;SDS011;5840;46.894;15.542;2023-03-14T04:57:15;5.23;;;3.93;;
11568;SDS011;5840;46.894;15.542;2023-03-14T04:59:41;3.93;;;3.60;;
11568;SDS011;5840;46.894;15.542;2023-03-14T05:02:10;5.10;;;3.33;;
11568;SDS011;5840;46.894;15.542;2023-03-14T05:04:37;4.20;;;3.50;;
11568;SDS011;5840;46.894;15.542;2023-03-14T05:07:04;4.20;;;3.47;;
11568;SDS011;5840;46.894;15.542;2023-03-14T05:09:31;3.77;;;3.47;;
11568;SDS011;5840;46.894;15.542;2023-03-14T05:11:58;5.27;;;3.87;;
11568;SDS011;5840;46.894;15.542;2023-03-14T05:14:25;5.17;;;3.90;;
11568;SDS011;5840;46.894;15.542;2023-03-14T05:16:52;6.90;;;4.07;;
11568;SDS011;5840;46.894;15.542;2023-03-14T05:19:20;4.40;;;4.00;;
11568;SDS011;5840;46.894;15.542;2023-03-14T05:21:47;6.20;;;3.83;;
11568;SDS011;5840;46.894;15.542;2023-03-14T05:24:14;5.50;;;3.80;;
11568;SDS011;5840;46.894;15.542;2023-03-14T05:26:41;6.20;;;3.90;;
11568;SDS011;5840;46.894;15.542;2023-03-14T05:29:07;4.40;;;3.57;;
11568;SDS011;5840;46.894;15.542;2023-03-14T05:31:34;4.30;;;3.70;;
11568;SDS011;5840;46.894;15.542;2023-03-14T05:34:01;4.00;;;3.60;;
11568;SDS011;5840;46.894;15.542;2023-03-14T05:36:30;7.27;;;4.07;;
11568;SDS011;5840;46.894;15.542;2023-03-14T05:38:57;5.20;;;3.63;;
11568;SDS011;5840;46.894;15.542;2023-03-14T05:41:24;4.13;;;3.83;;
11568;SDS011;5840;46.894;15.542;2023-03-14T05:43:51;3.93;;;3.50;;
11568;SDS011;5840;46.894;15.542;2023-03-14T05:46:17;6.67;;;3.87;;
11568;SDS011;5840;46.894;15.542;2023-03-14T05:48:44;3.57;;;3.27;;
11568;SDS011;5840;46.894;15.542;2023-03-14T05:51:11;4.63;;;4.10;;
11568;SDS011;5840;46.894;15.542;2023-03-14T05:53:40;4.53;;;3.50;;
11568;SDS011;5840;46.894;15.542;2023-03-14T05:56:07;3.90;;;3.60;;
11568;SDS011;5840;46.894;15.542;2023-03-14T05:58:34;4.20;;;3.77;;
11568;SDS011;5840;46.894;15.542;2023-03-14T06:01:02;5.27;;;3.97;;
11568;SDS011;5840;46.894;15.542;2023-03-14T06:03:29;5.07;;;3.40;;
11568;SDS011;5840;46.894;15.542;2023-03-14T06:05:56;4.80;;;4.30;;
11568;SDS011;5840;46.894;15.542;2023-03-14T06:08:23;12.37;;;11.17;;
11568;SDS011;5840;46.894;15.542;2023-03-14T06:10:51;4.43;;;3.67;;
11568;SDS011;5840;46.894;15.542;2023-03-14T06:13:19;4.27;;;3.83;;
11568;SDS011;5840;46.894;15.542;2023-03-14T06:15:46;5.17;;;4.40;;
11568;SDS011;5840;46.894;15.542;2023-03-14T06:18:13;5.73;;;4.00;;
11568;SDS011;5840;46.894;15.542;2023-03-14T06:20:40;4.73;;;3.97;;
11568;SDS011;5840;46.894;15.542;2023-03-14T06:23:08;6.17;;;3.70;;
11568;SDS011;5840;46.894;15.542;2023-03-14T06:25:35;4.87;;;3.63;;
11568;SDS011;5840;46.894;15.542;2023-03-14T06:28:04;4.50;;;3.90;;
11568;SDS011;5840;46.894;15.542;2023-03-14T06:30:31;3.90;;;3.60;;
11568;SDS011;5840;46.894;15.542;2023-03-14T06:32:58;7.17;;;3.90;;
11568;SDS011;5840;46.894;15.542;2023-03-14T06:35:25;4.00;;;3.70;;
11568;SDS011;5840;46.894;15.542;2023-03-14T06:37:52;5.40;;;3.93;;
11568;SDS011;5840;46.894;15.542;2023-03-14T06:40:19;7.50;;;4.03;;
11568;SDS011;5840;46.894;15.542;2023-03-14T06:42:46;4.67;;;3.50;;
11568;SDS011;5840;46.894;15.542;2023-03-14T06:45:14;4.57;;;4.17;;
11568;SDS011;5840;46.894;15.542;2023-03-14T06:47:42;4.80;;;4.00;;
11568;SDS011;5840;46.894;15.542;2023-03-14T06:50:09;4.20;;;3.80;;
11568;SDS011;5840;46.894;15.542;2023-03-14T06:52:36;5.43;;;4.00;;
11568;SDS011;5840;46.894;15.542;2023-03-14T06:55:06;4.80;;;3.97;;
11568;SDS011;5840;46.894;15.542;2023-03-14T06:57:34;11.60;;;10.50;;
11568;SDS011;5840;46.894;15.542;2023-03-14T07:00:01;5.53;;;4.23;;
11568;SDS011;5840;46.894;15.542;2023-03-14T07:02:30;4.50;;;3.20;;
11568;SDS011;5840;46.894;15.542;2023-03-14T07:04:57;3.87;;;3.30;;
11568;SDS011;5840;46.894;15.542;2023-03-14T07:07:25;3.60;;;3.37;;
11568;SDS011;5840;46.894;15.542;2023-03-14T07:09:52;4.03;;;3.40;;
11568;SDS011;5840;46.894;15.542;2023-03-14T07:12:19;3.40;;;3.10;;
11568;SDS011;5840;46.894;15.542;2023-03-14T07:14:47;3.30;;;2.83;;
11568;SDS011;5840;46.894;15.542;2023-03-14T07:17:13;3.20;;;2.90;;
11568;SDS011;5840;46.894;15.542;2023-03-14T07:19:42;5.13;;;3.60;;
11568;SDS011;5840;46.894;15.542;2023-03-14T07:22:09;4.50;;;3.47;;
11568;SDS011;5840;46.894;15.542;2023-03-14T07:24:36;7.13;;;6.00;;
11568;SDS011;5840;46.894;15.542;2023-03-14T07:27:03;5.23;;;3.77;;
11568;SDS011;5840;46.894;15.542;2023-03-14T07:29:30;3.77;;;2.90;;
11568;SDS011;5840;46.894;15.542;2023-03-14T07:31:57;4.20;;;3.20;;
11568;SDS011;5840;46.894;15.542;2023-03-14T07:34:24;3.77;;;2.87;;
11568;SDS011;5840;46.894;15.542;2023-03-14T07:36:53;4.00;;;2.53;;
11568;SDS011;5840;46.894;15.542;2023-03-14T07:39:21;4.23;;;2.50;;
11568;SDS011;5840;46.894;15.542;2023-03-14T07:41:48;4.23;;;3.00;;
11568;SDS011;5840;46.894;15.542;2023-03-14T07:44:15;4.07;;;2.73;;
11568;SDS011;5840;46.894;15.542;2023-03-14T07:46:42;3.43;;;2.80;;
11568;SDS011;5840;46.894;15.542;2023-03-14T07:49:09;2.83;;;2.63;;
11568;SDS011;5840;46.894;15.542;2023-03-14T07:51:36;3.90;;;2.70;;
11568;SDS011;5840;46.894;15.542;2023-03-14T07:54:04;4.17;;;2.63;;
11568;SDS011;5840;46.894;15.542;2023-03-14T07:56:31;5.33;;;2.97;;
11568;SDS011;5840;46.894;15.542;2023-03-14T07:58:58;5.47;;;2.87;;
11568;SDS011;5840;46.894;15.542;2023-03-14T08:01:26;4.13;;;2.60;;
11568;SDS011;5840;46.894;15.542;2023-03-14T08:03:53;3.27;;;2.50;;
11568;SDS011;5840;46.894;15.542;2023-03-14T08:06:20;2.47;;;2.10;;
11568;SDS011;5840;46.894;15.542;2023-03-14T08:08:46;3.60;;;2.70;;
11568;SDS011;5840;46.894;15.542;2023-03-14T08:11:15;3.80;;;2.47;;
11568;SDS011;5840;46.894;15.542;2023-03-14T08:13:42;3.27;;;2.47;;
11568;SDS011;5840;46.894;15.542;2023-03-14T08:16:14;3.33;;;2.90;;
11568;SDS011;5840;46.894;15.542;2023-03-14T08:18:41;3.60;;;2.83;;
11568;SDS011;5840;46.894;15.542;2023-03-14T08:21:08;2.87;;;2.40;;
11568;SDS011;5840;46.894;15.542;2023-03-14T08:23:35;3.77;;;2.60;;
11568;SDS011;5840;46.894;15.542;2023-03-14T08:26:02;3.27;;;3.07;;
11568;SDS011;5840;46.894;15.542;2023-03-14T08:28:31;2.70;;;2.50;;
11568;SDS011;5840;46.894;15.542;2023-03-14T08:30:58;3.33;;;2.67;;
11568;SDS011;5840;46.894;15.542;2023-03-14T08:33:26;4.87;;;3.00;;
11568;SDS011;5840;46.894;15.542;2023-03-14T08:35:55;4.63;;;2.20;;
11568;SDS011;5840;46.894;15.542;2023-03-14T08:38:23;2.30;;;2.10;;
11568;SDS011;5840;46.894;15.542;2023-03-14T08:40:54;4.37;;;2.80;;
11568;SDS011;5840;46.894;15.542;2023-03-14T08:43:22;5.27;;;3.43;;
11568;SDS011;5840;46.894;15.542;2023-03-14T08:45:51;3.40;;;2.30;;
11568;SDS011;5840;46.894;15.542;2023-03-14T08:48:17;3.40;;;2.40;;
11568;SDS011;5840;46.894;15.542;2023-03-14T08:50:44;3.40;;;2.43;;
11568;SDS011;5840;46.894;15.542;2023-03-14T08:53:12;4.30;;;2.57;;
11568;SDS011;5840;46.894;15.542;2023-03-14T08:55:39;4.37;;;2.80;;
11568;SDS011;5840;46.894;15.542;2023-03-14T08:58:05;3.50;;;2.40;;
11568;SDS011;5840;46.894;15.542;2023-03-14T09:00:33;3.40;;;2.50;;
11568;SDS011;5840;46.894;15.542;2023-03-14T09:03:01;2.30;;;1.97;;
11568;SDS011;5840;46.894;15.542;2023-03-14T09:05:28;2.67;;;2.30;;
11568;SDS011;5840;46.894;15.542;2023-03-14T09:07:55;2.53;;;2.33;;
11568;SDS011;5840;46.894;15.542;2023-03-14T09:10:22;3.13;;;2.20;;
11568;SDS011;5840;46.894;15.542;2023-03-14T09:12:49;2.40;;;2.20;;
11568;SDS011;5840;46.894;15.542;2023-03-14T09:15:16;2.47;;;2.20;;
11568;SDS011;5840;46.894;15.542;2023-03-14T09:17:43;2.73;;;2.03;;
11568;SDS011;5840;46.894;15.542;2023-03-14T09:20:12;5.43;;;2.67;;
11568;SDS011;5840;46.894;15.542;2023-03-14T09:22:39;3.53;;;2.33;;
11568;SDS011;5840;46.894;15.542;2023-03-14T09:25:06;2.03;;;1.80;;
11568;SDS011;5840;46.894;15.542;2023-03-14T09:27:34;1.60;;;1.50;;
11568;SDS011;5840;46.894;15.542;2023-03-14T09:30:02;3.23;;;1.97;;
11568;SDS011;5840;46.894;15.542;2023-03-14T09:32:29;7.57;;;2.00;;
11568;SDS011;5840;46.894;15.542;2023-03-14T09:34:57;2.20;;;2.00;;
11568;SDS011;5840;46.894;15.542;2023-03-14T09:37:25;3.80;;;1.70;;
11568;SDS011;5840;46.894;15.542;2023-03-14T09:39:52;2.23;;;1.70;;
11568;SDS011;5840;46.894;15.542;2023-03-14T09:42:20;4.80;;;2.07;;
11568;SDS011;5840;46.894;15.542;2023-03-14T09:44:52;3.70;;;1.80;;
11568;SDS011;5840;46.894;15.542;2023-03-14T09:47:21;2.20;;;1.90;;
11568;SDS011;5840;46.894;15.542;2023-03-14T09:49:50;2.93;;;1.80;;
11568;SDS011;5840;46.894;15.542;2023-03-14T09:52:17;2.73;;;1.80;;
11568;SDS011;5840;46.894;15.542;2023-03-14T09:54:50;2.83;;;2.13;;
11568;SDS011;5840;46.894;15.542;2023-03-14T09:57:19;2.33;;;1.90;;
11568;SDS011;5840;46.894;15.542;2023-03-14T09:59:49;4.60;;;1.87;;
11568;SDS011;5840;46.894;15.542;2023-03-14T10:02:19;2.77;;;1.80;;
11568;SDS011;5840;46.894;15.542;2023-03-14T10:04:47;1.73;;;1.63;;
11568;SDS011;5840;46.894;15.542;2023-03-14T10:07:16;3.23;;;1.87;;
11568;SDS011;5840;46.894;15.542;2023-03-14T10:09:47;1.80;;;1.70;;
11568;SDS011;5840;46.894;15.542;2023-03-14T10:12:17;1.60;;;1.50;;
11568;SDS011;5840;46.894;15.542;2023-03-14T10:14:45;2.30;;;1.77;;
11568;SDS011;5840;46.894;15.542;2023-03-14T10:17:14;2.97;;;1.67;;
11568;SDS011;5840;46.894;15.542;2023-03-14T10:22:28;2.53;;;1.70;;
11568;SDS011;5840;46.894;15.542;2023-03-14T10:25:00;1.40;;;1.30;;
11568;SDS011;5840;46.894;15.542;2023-03-14T10:27:29;2.87;;;1.60;;
11568;SDS011;5840;46.894;15.542;2023-03-14T10:29:58;1.33;;;1.27;;
11568;SDS011;5840;46.894;15.542;2023-03-14T10:32:32;1.67;;;1.57;;
11568;SDS011;5840;46.894;15.542;2023-03-14T10:35:04;2.33;;;1.30;;
11568;SDS011;5840;46.894;15.542;2023-03-14T10:37:35;1.20;;;1.20;;
11568;SDS011;5840;46.894;15.542;2023-03-14T10:40:04;2.37;;;1.37;;
11568;SDS011;5840;46.894;15.542;2023-03-14T10:42:33;0.90;;;0.90;;
11568;SDS011;5840;46.894;15.542;2023-03-14T10:45:06;1.13;;;1.10;;
11568;SDS011;5840;46.894;15.542;2023-03-14T10:47:51;1.90;;;1.30;;
11568;SDS011;5840;46.894;15.542;2023-03-14T10:50:22;1.00;;;1.00;;
11568;SDS011;5840;46.894;15.542;2023-03-14T10:52:51;1.13;;;1.13;;
11568;SDS011;5840;46.894;15.542;2023-03-14T10:55:23;1.33;;;1.00;;
11568;SDS011;5840;46.894;15.542;2023-03-14T10:57:50;1.10;;;1.10;;
11568;SDS011;5840;46.894;15.542;2023-03-14T11:00:18;1.10;;;1.00;;
11568;SDS011;5840;46.894;15.542;2023-03-14T11:02:49;1.00;;;1.00;;
11568;SDS011;5840;46.894;15.542;2023-03-14T11:05:31;1.30;;;1.20;;
11568;SDS011;5840;46.894;15.542;2023-03-14T11:08:07;2.50;;;2.30;;
11568;SDS011;5840;46.894;15.542;2023-03-14T11:10:38;1.37;;;1.17;;
11568;SDS011;5840;46.894;15.542;2023-03-14T11:13:12;1.20;;;1.13;;
11568;SDS011;5840;46.894;15.542;2023-03-14T11:15:46;1.30;;;1.20;;
11568;SDS011;5840;46.894;15.542;2023-03-14T11:21:18;3.03;;;1.20;;
11568;SDS011;5840;46.894;15.542;2023-03-14T11:23:54;1.07;;;1.07;;
11568;SDS011;5840;46.894;15.542;2023-03-14T11:26:35;1.30;;;1.20;;
11568;SDS011;5840;46.894;15.542;2023-03-14T11:29:09;1.30;;;1.20;;
11568;SDS011;5840;46.894;15.542;2023-03-14T11:31:44;1.30;;;1.20;;
11568;SDS011;5840;46.894;15.542;2023-03-14T11:34:15;1.43;;;1.03;;
11568;SDS011;5840;46.894;15.542;2023-03-14T11:36:45;1.07;;;1.07;;
11568;SDS011;5840;46.894;15.542;2023-03-14T11:39:18;1.10;;;1.10;;
11568;SDS011;5840;46.894;15.542;2023-03-14T11:41:47;1.40;;;1.30;;
11568;SDS011;5840;46.894;15.542;2023-03-14T11:44:18;1.27;;;1.17;;
11568;SDS011;5840;46.894;15.542;2023-03-14T11:46:47;1.40;;;1.30;;
11568;SDS011;5840;46.894;15.542;2023-03-14T11:49:22;1.00;;;1.00;;
11568;SDS011;5840;46.894;15.542;2023-03-14T11:51:57;1.97;;;1.30;;
11568;SDS011;5840;46.894;15.542;2023-03-14T11:54:31;1.63;;;1.53;;
11568;SDS011;5840;46.894;15.542;2023-03-14T11:57:05;1.73;;;1.37;;
11568;SDS011;5840;46.894;15.542;2023-03-14T11:59:40;1.50;;;1.40;;
11568;SDS011;5840;46.894;15.542;2023-03-14T12:02:16;2.00;;;1.60;;
11568;SDS011;5840;46.894;15.542;2023-03-14T12:04:53;1.20;;;1.20;;
11568;SDS011;5840;46.894;15.542;2023-03-14T12:07:29;3.23;;;1.50;;
11568;SDS011;5840;46.894;15.542;2023-03-14T12:10:01;1.30;;;1.30;;
11568;SDS011;5840;46.894;15.542;2023-03-14T12:12:31;1.73;;;1.40;;
11568;SDS011;5840;46.894;15.542;2023-03-14T12:14:59;1.50;;;1.40;;
11568;SDS011;5840;46.894;15.542;2023-03-14T12:17:33;1.40;;;1.30;;
11568;SDS011;5840;46.894;15.542;2023-03-14T12:20:04;1.20;;;1.10;;
11568;SDS011;5840;46.894;15.542;2023-03-14T12:22:41;3.90;;;1.80;;
11568;SDS011;5840;46.894;15.542;2023-03-14T12:25:14;1.40;;;1.30;;
11568;SDS011;5840;46.894;15.542;2023-03-14T12:27:49;1.43;;;1.30;;
11568;SDS011;5840;46.894;15.542;2023-03-14T12:30:37;1.57;;;1.30;;
11568;SDS011;5840;46.894;15.542;2023-03-14T12:36:01;1.03;;;1.03;;
11568;SDS011;5840;46.894;15.542;2023-03-14T12:38:56;1.70;;;1.40;;
11568;SDS011;5840;46.894;15.542;2023-03-14T12:41:36;1.30;;;1.30;;
11568;SDS011;5840;46.894;15.542;2023-03-14T12:50:18;1.20;;;1.20;;
11568;SDS011;5840;46.894;15.542;2023-03-14T12:52:51;1.20;;;1.20;;
11568;SDS011;5840;46.894;15.542;2023-03-14T12:55:43;1.20;;;1.20;;
11568;SDS011;5840;46.894;15.542;2023-03-14T12:58:15;1.33;;;1.23;;
11568;SDS011;5840;46.894;15.542;2023-03-14T13:00:51;1.50;;;1.13;;
11568;SDS011;5840;46.894;15.542;2023-03-14T13:03:23;1.13;;;1.03;;
11568;SDS011;5840;46.894;15.542;2023-03-14T13:05:54;2.00;;;1.53;;
11568;SDS011;5840;46.894;15.542;2023-03-14T13:11:09;1.47;;;1.40;;
11568;SDS011;5840;46.894;15.542;2023-03-14T13:13:41;1.23;;;1.20;;
11568;SDS011;5840;46.894;15.542;2023-03-14T13:16:12;1.80;;;1.70;;
11568;SDS011;5840;46.894;15.542;2023-03-14T13:18:44;1.43;;;1.43;;
11568;SDS011;5840;46.894;15.542;2023-03-14T13:21:13;2.73;;;1.43;;
11568;SDS011;5840;46.894;15.542;2023-03-14T13:23:53;1.27;;;1.20;;
11568;SDS011;5840;46.894;15.542;2023-03-14T13:26:22;1.33;;;1.23;;
11568;SDS011;5840;46.894;15.542;2023-03-14T13:28:52;2.07;;;1.40;;
11568;SDS011;5840;46.894;15.542;2023-03-14T13:31:21;1.20;;;1.20;;
11568;SDS011;5840;46.894;15.542;2023-03-14T13:34:00;1.40;;;1.30;;
11568;SDS011;5840;46.894;15.542;2023-03-14T13:36:30;2.20;;;1.73;;
11568;SDS011;5840;46.894;15.542;2023-03-14T13:38:58;1.40;;;1.40;;
11568;SDS011;5840;46.894;15.542;2023-03-14T13:41:26;1.60;;;1.60;;
11568;SDS011;5840;46.894;15.542;2023-03-14T13:43:56;1.80;;;1.50;;
11568;SDS011;5840;46.894;15.542;2023-03-14T13:46:28;1.73;;;1.23;;
11568;SDS011;5840;46.894;15.542;2023-03-14T13:48:57;1.40;;;1.30;;
11568;SDS011;5840;46.894;15.542;2023-03-14T13:51:27;1.30;;;1.30;;
11568;SDS011;5840;46.894;15.542;2023-03-14T13:53:57;1.50;;;1.40;;
11568;SDS011;5840;46.894;15.542;2023-03-14T13:56:26;1.23;;;1.13;;
11568;SDS011;5840;46.894;15.542;2023-03-14T13:58:55;1.23;;;1.20;;
11568;SDS011;5840;46.894;15.542;2023-03-14T14:01:22;3.23;;;1.17;;
11568;SDS011;5840;46.894;15.542;2023-03-14T14:03:52;1.40;;;1.30;;
11568;SDS011;5840;46.894;15.542;2023-03-14T14:06:25;1.50;;;1.40;;
11568;SDS011;5840;46.894;15.542;2023-03-14T14:08:55;1.20;;;1.20;;
11568;SDS011;5840;46.894;15.542;2023-03-14T14:11:27;1.10;;;1.10;;
11568;SDS011;5840;46.894;15.542;2023-03-14T14:14:01;1.60;;;1.50;;
11568;SDS011;5840;46.894;15.542;2023-03-14T14:16:29;1.47;;;1.47;;
11568;SDS011;5840;46.894;15.542;2023-03-14T14:18:57;1.70;;;1.70;;
11568;SDS011;5840;46.894;15.542;2023-03-14T14:21:27;1.70;;;1.60;;
11568;SDS011;5840;46.894;15.542;2023-03-14T14:23:56;1.53;;;1.43;;
11568;SDS011;5840;46.894;15.542;2023-03-14T14:26:23;1.93;;;1.60;;
11568;SDS011;5840;46.894;15.542;2023-03-14T14:28:58;1.50;;;1.40;;
11568;SDS011;5840;46.894;15.542;2023-03-14T14:31:27;2.00;;;1.30;;
11568;SDS011;5840;46.894;15.542;2023-03-14T14:33:54;1.47;;;1.47;;
11568;SDS011;5840;46.894;15.542;2023-03-14T14:36:24;1.40;;;1.30;;
11568;SDS011;5840;46.894;15.542;2023-03-14T14:38:54;1.27;;;1.17;;
11568;SDS011;5840;46.894;15.542;2023-03-14T14:41:31;1.40;;;1.40;;
11568;SDS011;5840;46.894;15.542;2023-03-14T14:44:01;1.27;;;1.27;;
11568;SDS011;5840;46.894;15.542;2023-03-14T14:46:30;1.80;;;1.37;;
11568;SDS011;5840;46.894;15.542;2023-03-14T14:49:02;1.27;;;1.27;;
11568;SDS011;5840;46.894;15.542;2023-03-14T14:51:31;1.53;;;1.23;;
11568;SDS011;5840;46.894;15.542;2023-03-14T14:54:11;2.33;;;1.47;;
11568;SDS011;5840;46.894;15.542;2023-03-14T14:56:40;1.67;;;1.30;;
11568;SDS011;5840;46.894;15.542;2023-03-14T14:59:21;1.60;;;1.50;;
11568;SDS011;5840;46.894;15.542;2023-03-14T15:01:50;1.57;;;1.47;;
11568;SDS011;5840;46.894;15.542;2023-03-14T15:04:22;1.30;;;1.30;;
11568;SDS011;5840;46.894;15.542;2023-03-14T15:06:49;1.80;;;1.70;;
11568;SDS011;5840;46.894;15.542;2023-03-14T15:09:19;1.50;;;1.40;;
11568;SDS011;5840;46.894;15.542;2023-03-14T15:11:46;1.83;;;1.73;;
11568;SDS011;5840;46.894;15.542;2023-03-14T15:14:14;1.50;;;1.50;;
11568;SDS011;5840;46.894;15.542;2023-03-14T15:16:41;1.60;;;1.50;;
11568;SDS011;5840;46.894;15.542;2023-03-14T15:19:12;1.50;;;1.50;;
11568;SDS011;5840;46.894;15.542;2023-03-14T15:21:42;1.73;;;1.70;;
11568;SDS011;5840;46.894;15.542;2023-03-14T15:24:09;1.60;;;1.50;;